X  Luk Metar data     EHKD De Kooy Airport
Temperatur
14°C Temperatur
12°C Duggpunkt
88% Fugtighed



Vind
32 KM/T
20 MPT
9 M/S
17 KNOB



190°
S
Nuværende forhold

Tåge Tåge
Tryk 1004.06 (hPa) - 29.65 (inHg)
Sigt 3.7 (mil) - 6 (km)
Lufthavn
Lufthavnskode EHKD

Lokation: De Kooy Airport
Afstand: 34 (km)

Metar:
EHKD 141125Z AUTO 19017KT 160V230 6000 BR FEW011 BKN015 OVC019 14/12 Q1004 WHT NOSIG

Tid: 14-06-2024 13:25 CEST